createdAt,value
2023-09-07T00:01:30.525Z,108.00
2023-09-07T00:06:36.948Z,110.75
2023-09-07T00:11:41.300Z,117.25
2023-09-07T00:16:45.710Z,114.50
2023-09-07T00:21:50.910Z,118.00
2023-09-07T00:26:55.675Z,116.00
2023-09-07T00:32:00.572Z,112.25
2023-09-07T00:37:05.827Z,110.00
2023-09-07T00:42:10.293Z,110.50
2023-09-07T00:47:16.108Z,115.75
2023-09-07T00:52:21.734Z,113.75
2023-09-07T00:57:26.160Z,113.25
2023-09-07T01:02:32.383Z,114.00
2023-09-07T01:08:02.659Z,112.25
2023-09-07T01:13:07.361Z,119.00
2023-09-07T01:18:24.037Z,124.25
2023-09-07T01:23:29.456Z,118.50
2023-09-07T01:28:33.827Z,116.50
2023-09-07T01:33:38.536Z,119.25
2023-09-07T01:38:43.301Z,122.75
2023-09-07T01:43:48.075Z,118.00
2023-09-07T01:48:53.110Z,124.50
2023-09-07T01:53:58.434Z,121.75
2023-09-07T01:59:03.418Z,120.25
2023-09-07T02:04:08.696Z,125.50
2023-09-07T02:09:13.914Z,119.00
2023-09-07T02:14:19.072Z,118.50
2023-09-07T02:19:25.813Z,120.50
2023-09-07T02:24:30.955Z,121.50
2023-09-07T02:29:35.897Z,119.75
2023-09-07T02:34:40.679Z,122.00
2023-09-07T02:39:48.288Z,109.25
2023-09-07T02:44:54.512Z,120.00
2023-09-07T02:49:59.407Z,113.75
2023-09-07T02:55:06.675Z,117.75
2023-09-07T03:00:13.154Z,122.75
2023-09-07T03:05:18.999Z,116.00
2023-09-07T03:10:24.341Z,114.25
2023-09-07T03:15:30.952Z,124.75
2023-09-07T03:20:36.559Z,118.00
2023-09-07T03:25:42.225Z,118.50
2023-09-07T03:30:47.415Z,122.75
2023-09-07T03:35:54.479Z,117.00
2023-09-07T03:40:59.895Z,114.25
2023-09-07T03:46:05.394Z,126.25
2023-09-07T03:51:11.568Z,124.00
2023-09-07T03:56:16.533Z,112.00
2023-09-07T04:01:21.814Z,109.50
2023-09-07T04:06:26.944Z,108.75
2023-09-07T04:11:31.964Z,103.75
2023-09-07T04:16:36.651Z,108.50
2023-09-07T04:21:41.651Z,108.75
2023-09-07T04:26:47.279Z,95.50
2023-09-07T04:31:55.801Z,102.50
2023-09-07T04:37:08.953Z,93.00
2023-09-07T04:42:15.201Z,85.50
2023-09-07T04:47:19.820Z,87.50
2023-09-07T04:52:24.856Z,80.50
2023-09-07T04:57:30.581Z,75.25
2023-09-07T05:02:35.595Z,75.75
2023-09-07T05:07:40.468Z,75.50
2023-09-07T05:12:46.790Z,70.50
2023-09-07T05:17:52.142Z,68.00
2023-09-07T05:22:59.038Z,66.75
2023-09-07T05:28:05.886Z,67.50
2023-09-07T05:33:15.138Z,64.25
2023-09-07T05:38:20.619Z,71.25
2023-09-07T05:43:26.973Z,64.00
2023-09-07T05:48:32.586Z,64.75
2023-09-07T05:53:37.894Z,69.25
2023-09-07T05:58:42.651Z,68.25
2023-09-07T06:03:48.150Z,65.75
2023-09-07T06:08:53.575Z,63.50
2023-09-07T06:13:58.769Z,62.50
2023-09-07T06:19:03.646Z,60.75
2023-09-07T06:24:09.498Z,62.50
2023-09-07T06:29:15.141Z,60.75
2023-09-07T06:34:20.752Z,58.00
2023-09-07T06:39:26.058Z,61.00
2023-09-07T06:44:31.849Z,65.00
2023-09-07T06:49:37.033Z,64.00
2023-09-07T06:54:42.788Z,65.25
2023-09-07T06:59:48.367Z,63.25
2023-09-07T07:04:53.806Z,67.25
2023-09-07T07:10:01.186Z,58.25
2023-09-07T07:15:06.875Z,60.25
2023-09-07T07:20:11.858Z,65.75
2023-09-07T07:25:17.617Z,62.75
2023-09-07T07:30:22.527Z,63.50
2023-09-07T07:35:27.159Z,63.25
2023-09-07T07:40:31.635Z,56.75
2023-09-07T07:45:49.837Z,63.75
2023-09-07T07:50:54.436Z,62.00
2023-09-07T07:55:59.553Z,58.50
2023-09-07T08:01:05.294Z,64.00
2023-09-07T08:06:10.182Z,56.00
2023-09-07T08:11:14.661Z,59.25
2023-09-07T08:16:20.321Z,64.00
2023-09-07T08:21:25.648Z,58.75
2023-09-07T08:26:30.626Z,58.00
2023-09-07T08:31:36.457Z,59.25
2023-09-07T08:36:41.146Z,62.25
2023-09-07T08:41:58.563Z,56.00
2023-09-07T08:47:07.844Z,51.75
2023-09-07T08:52:12.840Z,59.50
2023-09-07T08:57:17.777Z,61.25
2023-09-07T09:02:23.232Z,53.75
2023-09-07T09:07:28.700Z,56.50
2023-09-07T09:12:49.787Z,58.50
2023-09-07T09:17:54.480Z,61.50
2023-09-07T09:22:59.288Z,58.75
2023-09-07T09:28:05.050Z,54.50
2023-09-07T09:33:16.282Z,55.25
2023-09-07T09:38:21.132Z,55.00
2023-09-07T09:43:26.604Z,53.25
2023-09-07T09:48:35.328Z,52.50
2023-09-07T09:53:41.558Z,59.25
2023-09-07T09:58:46.480Z,53.50
2023-09-07T10:03:53.175Z,54.25
2023-09-07T10:09:13.392Z,55.50
2023-09-07T10:14:20.268Z,55.75
2023-09-07T10:19:25.529Z,54.25
2023-09-07T10:24:30.969Z,56.75
2023-09-07T10:29:45.463Z,57.75
2023-09-07T10:34:49.882Z,58.75
2023-09-07T10:39:54.530Z,56.50
2023-09-07T10:44:59.070Z,56.00
2023-09-07T10:50:04.198Z,56.25
2023-09-07T10:55:14.248Z,57.75
2023-09-07T11:00:19.258Z,52.25
2023-09-07T11:05:23.660Z,53.75
2023-09-07T11:10:31.142Z,60.25
2023-09-07T11:15:37.993Z,60.50
2023-09-07T11:20:42.633Z,60.00
2023-09-07T11:25:53.270Z,63.75
2023-09-07T11:30:58.484Z,61.75
2023-09-07T11:36:06.339Z,59.75
2023-09-07T11:41:10.963Z,61.00
2023-09-07T11:46:15.450Z,57.25
2023-09-07T11:51:20.142Z,53.25
2023-09-07T11:56:25.028Z,56.00
2023-09-07T12:01:30.703Z,59.25
2023-09-07T12:06:35.430Z,56.75
2023-09-07T12:11:40.005Z,58.25
2023-09-07T12:16:44.529Z,57.00
2023-09-07T12:21:50.850Z,57.00
2023-09-07T12:26:56.578Z,59.25
2023-09-07T12:32:02.034Z,57.50
2023-09-07T12:37:07.439Z,60.00
2023-09-07T12:42:12.067Z,60.50
2023-09-07T12:47:16.607Z,61.00
2023-09-07T12:52:21.171Z,56.50
2023-09-07T12:57:26.259Z,56.75
2023-09-07T13:02:30.943Z,56.00
2023-09-07T13:07:36.924Z,59.75
2023-09-07T13:12:42.429Z,57.25
2023-09-07T13:17:48.190Z,53.25
2023-09-07T13:22:52.499Z,58.75
2023-09-07T13:27:57.690Z,59.50
2023-09-07T13:33:03.902Z,52.75
2023-09-07T13:38:08.985Z,57.00
2023-09-07T13:43:13.465Z,56.50
2023-09-07T13:48:19.367Z,57.75
2023-09-07T13:53:24.060Z,60.00
2023-09-07T13:58:29.468Z,57.50
2023-09-07T14:03:37.326Z,57.75
2023-09-07T14:08:42.074Z,60.50
2023-09-07T14:13:56.198Z,57.25
2023-09-07T14:19:01.377Z,58.25
2023-09-07T14:24:06.578Z,57.00
2023-09-07T14:29:11.406Z,57.00
2023-09-07T14:34:16.753Z,57.75
2023-09-07T14:39:26.520Z,54.25
2023-09-07T14:44:31.046Z,58.50
2023-09-07T14:49:35.428Z,62.25
2023-09-07T14:54:39.740Z,64.50
2023-09-07T14:59:44.261Z,62.50
2023-09-07T15:04:49.167Z,62.00
2023-09-07T15:09:53.702Z,59.50
2023-09-07T15:14:58.070Z,60.50
2023-09-07T15:20:02.946Z,61.25
2023-09-07T15:25:09.545Z,59.25
2023-09-07T15:30:14.916Z,63.00
2023-09-07T15:35:19.642Z,62.75
2023-09-07T15:40:25.814Z,59.00
2023-09-07T15:45:30.885Z,62.75
2023-09-07T15:50:36.204Z,66.25
2023-09-07T15:55:41.578Z,68.75
2023-09-07T16:00:46.294Z,65.00
2023-09-07T16:05:50.869Z,66.25
2023-09-07T16:11:00.591Z,69.75
2023-09-07T16:16:05.217Z,64.50
2023-09-07T16:21:12.570Z,68.00
2023-09-07T16:26:16.882Z,68.00
2023-09-07T17:10:21.120Z,76.50
2023-09-07T17:15:30.061Z,70.50
2023-09-07T17:20:37.742Z,72.75
2023-09-07T17:25:43.968Z,71.00
2023-09-07T17:30:48.858Z,80.50
2023-09-07T17:35:56.396Z,79.25
2023-09-07T17:41:01.259Z,72.00
2023-09-07T17:46:06.058Z,80.25
2023-09-07T17:51:10.939Z,84.75
2023-09-07T17:56:16.528Z,85.50
2023-09-07T18:01:22.017Z,87.50
2023-09-07T18:06:26.847Z,81.75
2023-09-07T18:11:32.059Z,86.50
2023-09-07T18:16:38.763Z,88.75
2023-09-07T18:21:45.304Z,84.00
2023-09-07T18:26:50.183Z,86.00
2023-09-07T18:31:55.046Z,84.00
2023-09-07T18:37:00.016Z,90.00
2023-09-07T18:42:05.398Z,88.50
2023-09-07T18:47:11.821Z,95.75
2023-09-07T18:52:17.140Z,90.75
2023-09-07T18:57:22.320Z,89.50
2023-09-07T19:02:27.252Z,93.00
2023-09-07T19:07:32.071Z,83.25
2023-09-07T19:12:38.824Z,90.75
2023-09-07T19:17:43.796Z,90.50
2023-09-07T19:22:49.105Z,91.25
2023-09-07T19:27:53.920Z,84.75
2023-09-07T19:33:00.199Z,89.75
2023-09-07T19:38:05.108Z,89.25
2023-09-07T19:43:11.136Z,94.50
2023-09-07T19:48:16.023Z,91.00
2023-09-07T19:53:20.974Z,100.25
2023-09-07T19:58:26.408Z,95.00
2023-09-07T20:03:31.336Z,98.50
2023-09-07T20:08:36.403Z,98.50
2023-09-07T20:13:43.071Z,99.00
2023-09-07T20:18:49.149Z,98.25
2023-09-07T20:23:54.123Z,94.25
2023-09-07T20:28:59.000Z,94.00
2023-09-07T20:34:05.195Z,104.75
2023-09-07T20:39:10.495Z,96.75
2023-09-07T20:44:15.366Z,106.50
2023-09-07T20:49:20.606Z,101.00
2023-09-07T20:54:25.679Z,102.75
2023-09-07T20:59:31.633Z,97.75
2023-09-07T21:04:36.793Z,102.50
2023-09-07T21:09:41.909Z,106.00
2023-09-07T21:14:47.853Z,100.75
2023-09-07T21:19:52.877Z,100.25
2023-09-07T21:24:57.979Z,99.25
2023-09-07T21:30:03.025Z,94.50
2023-09-07T21:35:08.551Z,102.25
2023-09-07T21:40:13.550Z,102.75
2023-09-07T21:45:18.351Z,104.00
2023-09-07T21:50:23.215Z,106.75
2023-09-07T21:55:28.139Z,104.75
2023-09-07T22:00:32.956Z,112.00
2023-09-07T22:05:37.825Z,108.75
2023-09-07T22:10:42.784Z,110.00
2023-09-07T22:15:47.506Z,106.50
2023-09-07T22:20:52.411Z,108.25
2023-09-07T22:25:57.141Z,112.25
2023-09-07T22:31:02.233Z,105.75
2023-09-07T22:36:08.337Z,107.50
2023-09-07T22:41:14.232Z,105.25
2023-09-07T22:46:19.094Z,104.25
2023-09-07T22:51:24.131Z,108.25
2023-09-07T22:56:28.916Z,113.50
2023-09-07T23:01:34.065Z,110.00
2023-09-07T23:06:38.741Z,102.25
2023-09-07T23:11:44.308Z,99.75
2023-09-07T23:16:49.124Z,106.75
2023-09-07T23:21:53.946Z,107.00
2023-09-07T23:26:58.856Z,102.00
2023-09-07T23:32:03.302Z,104.00
2023-09-07T23:37:08.759Z,92.50
2023-09-07T23:42:13.208Z,82.00
2023-09-07T23:47:17.591Z,83.75
2023-09-07T23:52:22.163Z,80.75
2023-09-07T23:57:26.413Z,70.75
